sensor_id;sensor_type;location;lat;lon;timestamp;temperature;humidity
7159;DHT22;63175;52.374;13.132;2023-12-20T00:02:02;7.00;99.90
7159;DHT22;63175;52.374;13.132;2023-12-20T00:04:29;6.90;99.90
7159;DHT22;63175;52.374;13.132;2023-12-20T00:06:56;7.00;99.90
7159;DHT22;63175;52.374;13.132;2023-12-20T00:09:22;6.90;99.90
7159;DHT22;63175;52.374;13.132;2023-12-20T00:11:49;6.90;99.90
7159;DHT22;63175;52.374;13.132;2023-12-20T00:14:17;6.90;99.90
7159;DHT22;63175;52.374;13.132;2023-12-20T00:16:44;6.90;99.90
7159;DHT22;63175;52.374;13.132;2023-12-20T00:19:11;6.90;99.90
7159;DHT22;63175;52.374;13.132;2023-12-20T00:21:38;6.90;99.90
7159;DHT22;63175;52.374;13.132;2023-12-20T00:24:06;6.90;99.90
7159;DHT22;63175;52.374;13.132;2023-12-20T00:26:33;6.90;99.90
7159;DHT22;63175;52.374;13.132;2023-12-20T00:29:00;6.90;99.90
7159;DHT22;63175;52.374;13.132;2023-12-20T00:31:28;6.90;99.90
7159;DHT22;63175;52.374;13.132;2023-12-20T00:33:55;6.90;99.90
7159;DHT22;63175;52.374;13.132;2023-12-20T00:36:22;6.90;99.90
7159;DHT22;63175;52.374;13.132;2023-12-20T00:38:49;6.90;99.90
7159;DHT22;63175;52.374;13.132;2023-12-20T00:41:16;6.90;99.90
7159;DHT22;63175;52.374;13.132;2023-12-20T00:43:43;6.90;99.90
7159;DHT22;63175;52.374;13.132;2023-12-20T00:46:11;6.90;99.90
7159;DHT22;63175;52.374;13.132;2023-12-20T00:48:39;6.90;99.90
7159;DHT22;63175;52.374;13.132;2023-12-20T00:51:07;6.90;99.90
7159;DHT22;63175;52.374;13.132;2023-12-20T00:53:34;6.90;99.90
7159;DHT22;63175;52.374;13.132;2023-12-20T00:56:01;6.90;99.90
7159;DHT22;63175;52.374;13.132;2023-12-20T00:58:28;6.90;99.90
7159;DHT22;63175;52.374;13.132;2023-12-20T01:00:55;6.90;99.90
7159;DHT22;63175;52.374;13.132;2023-12-20T01:03:22;6.90;99.90
7159;DHT22;63175;52.374;13.132;2023-12-20T01:05:50;6.90;99.90
7159;DHT22;63175;52.374;13.132;2023-12-20T01:08:17;6.90;99.90
7159;DHT22;63175;52.374;13.132;2023-12-20T01:10:44;6.90;99.90
7159;DHT22;63175;52.374;13.132;2023-12-20T01:13:12;6.90;99.90
7159;DHT22;63175;52.374;13.132;2023-12-20T01:15:39;6.90;99.90
7159;DHT22;63175;52.374;13.132;2023-12-20T01:18:05;6.90;99.90
7159;DHT22;63175;52.374;13.132;2023-12-20T01:20:32;6.90;99.90
7159;DHT22;63175;52.374;13.132;2023-12-20T01:23:00;6.90;99.90
7159;DHT22;63175;52.374;13.132;2023-12-20T01:25:27;6.90;99.90
7159;DHT22;63175;52.374;13.132;2023-12-20T01:27:54;6.90;99.90
7159;DHT22;63175;52.374;13.132;2023-12-20T01:30:21;6.90;99.90
7159;DHT22;63175;52.374;13.132;2023-12-20T01:32:48;6.80;99.90
7159;DHT22;63175;52.374;13.132;2023-12-20T01:35:14;6.80;99.90
7159;DHT22;63175;52.374;13.132;2023-12-20T01:37:41;6.80;99.90
7159;DHT22;63175;52.374;13.132;2023-12-20T01:40:10;6.80;99.90
7159;DHT22;63175;52.374;13.132;2023-12-20T01:42:37;6.80;99.90
7159;DHT22;63175;52.374;13.132;2023-12-20T01:45:05;6.80;99.90
7159;DHT22;63175;52.374;13.132;2023-12-20T01:47:32;6.80;99.90
7159;DHT22;63175;52.374;13.132;2023-12-20T01:49:59;6.80;99.90
7159;DHT22;63175;52.374;13.132;2023-12-20T01:52:26;6.80;99.90
7159;DHT22;63175;52.374;13.132;2023-12-20T01:54:53;6.80;99.90
7159;DHT22;63175;52.374;13.132;2023-12-20T01:57:27;6.80;99.90
7159;DHT22;63175;52.374;13.132;2023-12-20T01:59:55;6.90;99.90
7159;DHT22;63175;52.374;13.132;2023-12-20T02:02:23;6.90;99.90
7159;DHT22;63175;52.374;13.132;2023-12-20T02:04:49;6.90;99.90
7159;DHT22;63175;52.374;13.132;2023-12-20T02:07:18;6.90;99.90
7159;DHT22;63175;52.374;13.132;2023-12-20T02:09:45;6.80;99.90
7159;DHT22;63175;52.374;13.132;2023-12-20T02:12:13;6.90;99.90
7159;DHT22;63175;52.374;13.132;2023-12-20T02:14:41;6.90;99.90
7159;DHT22;63175;52.374;13.132;2023-12-20T02:17:08;6.90;99.90
7159;DHT22;63175;52.374;13.132;2023-12-20T02:19:34;6.90;99.90
7159;DHT22;63175;52.374;13.132;2023-12-20T02:22:10;6.90;99.90
7159;DHT22;63175;52.374;13.132;2023-12-20T02:24:37;6.80;99.90
7159;DHT22;63175;52.374;13.132;2023-12-20T02:27:06;6.90;99.90
7159;DHT22;63175;52.374;13.132;2023-12-20T02:29:33;6.90;99.90
7159;DHT22;63175;52.374;13.132;2023-12-20T02:32:00;6.90;99.90
7159;DHT22;63175;52.374;13.132;2023-12-20T02:34:28;6.90;99.90
7159;DHT22;63175;52.374;13.132;2023-12-20T02:36:55;6.90;99.90
7159;DHT22;63175;52.374;13.132;2023-12-20T02:39:23;6.90;99.90
7159;DHT22;63175;52.374;13.132;2023-12-20T02:41:50;6.90;99.90
7159;DHT22;63175;52.374;13.132;2023-12-20T02:44:17;6.90;99.90
7159;DHT22;63175;52.374;13.132;2023-12-20T02:46:44;6.90;99.90
7159;DHT22;63175;52.374;13.132;2023-12-20T02:49:10;6.90;99.90
7159;DHT22;63175;52.374;13.132;2023-12-20T02:51:37;6.90;99.90
7159;DHT22;63175;52.374;13.132;2023-12-20T02:54:04;6.90;99.90
7159;DHT22;63175;52.374;13.132;2023-12-20T02:56:33;6.90;99.90
7159;DHT22;63175;52.374;13.132;2023-12-20T02:58:59;7.00;99.90
7159;DHT22;63175;52.374;13.132;2023-12-20T03:01:26;7.00;99.90
7159;DHT22;63175;52.374;13.132;2023-12-20T03:03:53;7.00;99.90
7159;DHT22;63175;52.374;13.132;2023-12-20T03:06:20;7.00;99.90
7159;DHT22;63175;52.374;13.132;2023-12-20T03:08:47;7.00;99.90
7159;DHT22;63175;52.374;13.132;2023-12-20T03:11:14;7.00;99.90
7159;DHT22;63175;52.374;13.132;2023-12-20T03:13:42;7.00;99.90
7159;DHT22;63175;52.374;13.132;2023-12-20T03:16:09;7.00;99.90
7159;DHT22;63175;52.374;13.132;2023-12-20T03:18:36;7.00;99.90
7159;DHT22;63175;52.374;13.132;2023-12-20T03:21:03;7.00;99.90
7159;DHT22;63175;52.374;13.132;2023-12-20T03:23:30;7.00;99.90
7159;DHT22;63175;52.374;13.132;2023-12-20T03:25:58;7.00;99.90
7159;DHT22;63175;52.374;13.132;2023-12-20T03:28:24;7.00;99.90
7159;DHT22;63175;52.374;13.132;2023-12-20T03:30:54;7.00;99.90
7159;DHT22;63175;52.374;13.132;2023-12-20T03:33:21;7.00;99.90
7159;DHT22;63175;52.374;13.132;2023-12-20T03:35:48;7.00;99.90
7159;DHT22;63175;52.374;13.132;2023-12-20T03:38:14;7.00;99.90
7159;DHT22;63175;52.374;13.132;2023-12-20T03:40:41;6.90;99.90
7159;DHT22;63175;52.374;13.132;2023-12-20T03:43:08;7.00;99.90
7159;DHT22;63175;52.374;13.132;2023-12-20T03:45:35;7.00;99.90
7159;DHT22;63175;52.374;13.132;2023-12-20T03:48:04;7.00;99.90
7159;DHT22;63175;52.374;13.132;2023-12-20T03:50:31;7.00;99.90
7159;DHT22;63175;52.374;13.132;2023-12-20T03:52:58;7.00;99.90
7159;DHT22;63175;52.374;13.132;2023-12-20T03:55:24;7.00;99.90
7159;DHT22;63175;52.374;13.132;2023-12-20T03:57:51;7.00;99.90
7159;DHT22;63175;52.374;13.132;2023-12-20T04:00:18;7.00;99.90
7159;DHT22;63175;52.374;13.132;2023-12-20T04:02:45;7.00;99.90
7159;DHT22;63175;52.374;13.132;2023-12-20T04:05:13;6.90;99.90
7159;DHT22;63175;52.374;13.132;2023-12-20T04:07:40;6.90;99.90
7159;DHT22;63175;52.374;13.132;2023-12-20T04:10:08;6.90;99.90
7159;DHT22;63175;52.374;13.132;2023-12-20T04:12:34;6.90;99.90
7159;DHT22;63175;52.374;13.132;2023-12-20T04:15:01;6.90;99.90
7159;DHT22;63175;52.374;13.132;2023-12-20T04:17:34;6.90;99.90
7159;DHT22;63175;52.374;13.132;2023-12-20T04:20:01;6.90;99.90
7159;DHT22;63175;52.374;13.132;2023-12-20T04:22:29;6.80;99.90
7159;DHT22;63175;52.374;13.132;2023-12-20T04:24:56;6.80;99.90
7159;DHT22;63175;52.374;13.132;2023-12-20T04:27:23;6.80;99.90
7159;DHT22;63175;52.374;13.132;2023-12-20T04:29:49;6.80;99.90
7159;DHT22;63175;52.374;13.132;2023-12-20T04:32:16;6.70;99.90
7159;DHT22;63175;52.374;13.132;2023-12-20T04:34:43;6.70;99.90
7159;DHT22;63175;52.374;13.132;2023-12-20T04:37:10;6.70;99.90
7159;DHT22;63175;52.374;13.132;2023-12-20T04:39:39;6.60;99.90
7159;DHT22;63175;52.374;13.132;2023-12-20T04:42:07;6.70;99.90
7159;DHT22;63175;52.374;13.132;2023-12-20T04:44:34;6.60;99.90
7159;DHT22;63175;52.374;13.132;2023-12-20T04:47:00;6.60;99.90
7159;DHT22;63175;52.374;13.132;2023-12-20T04:49:27;6.60;99.90
7159;DHT22;63175;52.374;13.132;2023-12-20T04:51:54;6.50;99.90
7159;DHT22;63175;52.374;13.132;2023-12-20T04:54:21;6.50;99.90
7159;DHT22;63175;52.374;13.132;2023-12-20T04:56:49;6.40;99.90
7159;DHT22;63175;52.374;13.132;2023-12-20T04:59:16;6.40;99.90
7159;DHT22;63175;52.374;13.132;2023-12-20T05:01:43;6.40;99.90
7159;DHT22;63175;52.374;13.132;2023-12-20T05:04:10;6.30;99.90
7159;DHT22;63175;52.374;13.132;2023-12-20T05:06:36;6.30;99.90
7159;DHT22;63175;52.374;13.132;2023-12-20T05:09:03;6.20;99.90
7159;DHT22;63175;52.374;13.132;2023-12-20T05:11:30;6.20;99.90
7159;DHT22;63175;52.374;13.132;2023-12-20T05:13:58;6.20;99.90
7159;DHT22;63175;52.374;13.132;2023-12-20T05:16:25;6.10;99.90
7159;DHT22;63175;52.374;13.132;2023-12-20T05:18:52;6.10;99.90
7159;DHT22;63175;52.374;13.132;2023-12-20T05:21:19;6.10;99.90
7159;DHT22;63175;52.374;13.132;2023-12-20T05:23:45;6.10;99.90
7159;DHT22;63175;52.374;13.132;2023-12-20T05:26:12;6.10;99.90
7159;DHT22;63175;52.374;13.132;2023-12-20T05:28:39;6.10;99.90
7159;DHT22;63175;52.374;13.132;2023-12-20T05:31:07;6.10;99.90
7159;DHT22;63175;52.374;13.132;2023-12-20T05:33:34;6.00;99.90
7159;DHT22;63175;52.374;13.132;2023-12-20T05:36:01;6.00;99.90
7159;DHT22;63175;52.374;13.132;2023-12-20T05:38:28;6.00;99.90
7159;DHT22;63175;52.374;13.132;2023-12-20T05:40:55;6.00;99.90
7159;DHT22;63175;52.374;13.132;2023-12-20T05:43:22;6.00;99.90
7159;DHT22;63175;52.374;13.132;2023-12-20T05:45:49;6.00;99.90
7159;DHT22;63175;52.374;13.132;2023-12-20T05:48:17;6.00;99.90
7159;DHT22;63175;52.374;13.132;2023-12-20T05:50:44;6.00;99.90
7159;DHT22;63175;52.374;13.132;2023-12-20T05:53:11;6.00;99.90
7159;DHT22;63175;52.374;13.132;2023-12-20T05:55:37;6.00;99.90
7159;DHT22;63175;52.374;13.132;2023-12-20T05:58:04;6.00;99.90
7159;DHT22;63175;52.374;13.132;2023-12-20T06:00:31;6.00;99.90
7159;DHT22;63175;52.374;13.132;2023-12-20T06:02:58;5.90;99.90
7159;DHT22;63175;52.374;13.132;2023-12-20T06:05:27;5.90;99.90
7159;DHT22;63175;52.374;13.132;2023-12-20T06:07:53;5.90;99.90
7159;DHT22;63175;52.374;13.132;2023-12-20T06:10:22;6.00;99.90
7159;DHT22;63175;52.374;13.132;2023-12-20T06:12:49;5.90;99.90
7159;DHT22;63175;52.374;13.132;2023-12-20T06:15:16;5.90;99.90
7159;DHT22;63175;52.374;13.132;2023-12-20T06:17:43;5.90;99.90
7159;DHT22;63175;52.374;13.132;2023-12-20T06:20:10;5.90;99.90
7159;DHT22;63175;52.374;13.132;2023-12-20T06:22:39;5.90;99.90
7159;DHT22;63175;52.374;13.132;2023-12-20T06:25:07;5.90;99.90
7159;DHT22;63175;52.374;13.132;2023-12-20T06:27:34;5.90;99.90
7159;DHT22;63175;52.374;13.132;2023-12-20T06:30:01;5.90;99.90
7159;DHT22;63175;52.374;13.132;2023-12-20T06:32:28;5.90;99.90
7159;DHT22;63175;52.374;13.132;2023-12-20T06:34:55;5.80;99.90
7159;DHT22;63175;52.374;13.132;2023-12-20T06:37:22;5.90;99.90
7159;DHT22;63175;52.374;13.132;2023-12-20T06:39:50;5.90;99.90
7159;DHT22;63175;52.374;13.132;2023-12-20T06:42:17;5.90;99.90
7159;DHT22;63175;52.374;13.132;2023-12-20T06:44:44;5.90;99.90
7159;DHT22;63175;52.374;13.132;2023-12-20T06:47:11;5.90;99.90
7159;DHT22;63175;52.374;13.132;2023-12-20T06:49:39;5.90;99.90
7159;DHT22;63175;52.374;13.132;2023-12-20T06:52:06;5.80;99.90
7159;DHT22;63175;52.374;13.132;2023-12-20T06:54:33;5.80;99.90
7159;DHT22;63175;52.374;13.132;2023-12-20T06:57:02;5.80;99.90
7159;DHT22;63175;52.374;13.132;2023-12-20T06:59:30;5.80;99.90
7159;DHT22;63175;52.374;13.132;2023-12-20T07:01:56;5.80;99.90
7159;DHT22;63175;52.374;13.132;2023-12-20T07:04:23;5.80;99.90
7159;DHT22;63175;52.374;13.132;2023-12-20T07:06:50;5.80;99.90
7159;DHT22;63175;52.374;13.132;2023-12-20T07:09:19;5.80;99.90
7159;DHT22;63175;52.374;13.132;2023-12-20T07:11:46;5.80;99.90
7159;DHT22;63175;52.374;13.132;2023-12-20T07:14:14;5.80;99.90
7159;DHT22;63175;52.374;13.132;2023-12-20T07:16:41;5.70;99.90
7159;DHT22;63175;52.374;13.132;2023-12-20T07:19:08;5.80;99.90
7159;DHT22;63175;52.374;13.132;2023-12-20T07:21:35;5.80;99.90
7159;DHT22;63175;52.374;13.132;2023-12-20T07:24:01;5.80;99.90
7159;DHT22;63175;52.374;13.132;2023-12-20T07:26:28;5.80;99.90
7159;DHT22;63175;52.374;13.132;2023-12-20T07:28:55;5.80;99.90
7159;DHT22;63175;52.374;13.132;2023-12-20T07:31:23;5.80;99.90
7159;DHT22;63175;52.374;13.132;2023-12-20T07:33:50;5.90;99.90
7159;DHT22;63175;52.374;13.132;2023-12-20T07:36:17;5.90;99.90
7159;DHT22;63175;52.374;13.132;2023-12-20T07:38:44;5.90;99.90
7159;DHT22;63175;52.374;13.132;2023-12-20T07:41:10;5.90;99.90
7159;DHT22;63175;52.374;13.132;2023-12-20T07:43:37;5.90;99.90
7159;DHT22;63175;52.374;13.132;2023-12-20T07:46:05;5.90;99.90
7159;DHT22;63175;52.374;13.132;2023-12-20T07:48:33;5.90;99.90
7159;DHT22;63175;52.374;13.132;2023-12-20T07:51:00;5.90;99.90
7159;DHT22;63175;52.374;13.132;2023-12-20T07:53:27;5.90;99.90
7159;DHT22;63175;52.374;13.132;2023-12-20T07:55:54;5.90;99.90
7159;DHT22;63175;52.374;13.132;2023-12-20T07:58:21;5.90;99.90
7159;DHT22;63175;52.374;13.132;2023-12-20T08:00:48;5.90;99.90
7159;DHT22;63175;52.374;13.132;2023-12-20T08:03:15;5.90;99.90
7159;DHT22;63175;52.374;13.132;2023-12-20T08:05:43;5.90;99.90
7159;DHT22;63175;52.374;13.132;2023-12-20T08:08:10;5.90;99.90
7159;DHT22;63175;52.374;13.132;2023-12-20T08:10:37;5.90;99.90
7159;DHT22;63175;52.374;13.132;2023-12-20T08:13:04;5.90;99.90
7159;DHT22;63175;52.374;13.132;2023-12-20T08:15:29;5.90;99.90
7159;DHT22;63175;52.374;13.132;2023-12-20T08:17:56;5.90;99.90
7159;DHT22;63175;52.374;13.132;2023-12-20T08:20:23;5.90;99.90
7159;DHT22;63175;52.374;13.132;2023-12-20T08:22:51;5.90;99.90
7159;DHT22;63175;52.374;13.132;2023-12-20T08:25:18;5.90;99.90
7159;DHT22;63175;52.374;13.132;2023-12-20T08:27:45;5.90;99.90
7159;DHT22;63175;52.374;13.132;2023-12-20T08:30:12;5.90;99.90
7159;DHT22;63175;52.374;13.132;2023-12-20T08:32:39;5.90;99.90
7159;DHT22;63175;52.374;13.132;2023-12-20T08:35:06;5.90;99.90
7159;DHT22;63175;52.374;13.132;2023-12-20T08:37:33;5.90;99.90
7159;DHT22;63175;52.374;13.132;2023-12-20T08:40:03;5.90;99.90
7159;DHT22;63175;52.374;13.132;2023-12-20T08:42:30;6.00;99.90
7159;DHT22;63175;52.374;13.132;2023-12-20T08:44:57;6.00;99.90
7159;DHT22;63175;52.374;13.132;2023-12-20T08:47:24;6.00;99.90
7159;DHT22;63175;52.374;13.132;2023-12-20T08:49:51;6.00;99.90
7159;DHT22;63175;52.374;13.132;2023-12-20T08:52:21;6.10;99.90
7159;DHT22;63175;52.374;13.132;2023-12-20T08:54:48;6.10;99.90
7159;DHT22;63175;52.374;13.132;2023-12-20T08:57:19;6.10;99.90
7159;DHT22;63175;52.374;13.132;2023-12-20T08:59:46;6.20;99.90
7159;DHT22;63175;52.374;13.132;2023-12-20T09:02:14;6.20;99.90
7159;DHT22;63175;52.374;13.132;2023-12-20T09:04:41;6.20;99.90
7159;DHT22;63175;52.374;13.132;2023-12-20T09:07:21;6.30;99.90
7159;DHT22;63175;52.374;13.132;2023-12-20T09:09:48;6.40;99.90
7159;DHT22;63175;52.374;13.132;2023-12-20T09:12:14;6.40;99.90
7159;DHT22;63175;52.374;13.132;2023-12-20T09:14:43;6.50;99.90
7159;DHT22;63175;52.374;13.132;2023-12-20T09:17:09;6.50;99.90
7159;DHT22;63175;52.374;13.132;2023-12-20T09:19:37;6.50;99.90
7159;DHT22;63175;52.374;13.132;2023-12-20T09:22:04;6.50;99.90
7159;DHT22;63175;52.374;13.132;2023-12-20T09:24:31;6.50;99.90
7159;DHT22;63175;52.374;13.132;2023-12-20T09:26:58;6.50;99.90
7159;DHT22;63175;52.374;13.132;2023-12-20T09:29:25;6.50;99.90
7159;DHT22;63175;52.374;13.132;2023-12-20T09:31:53;6.50;99.90
7159;DHT22;63175;52.374;13.132;2023-12-20T09:34:20;6.50;99.90
7159;DHT22;63175;52.374;13.132;2023-12-20T09:36:47;6.50;99.90
7159;DHT22;63175;52.374;13.132;2023-12-20T09:39:15;6.50;99.90
7159;DHT22;63175;52.374;13.132;2023-12-20T09:41:45;6.50;99.90
7159;DHT22;63175;52.374;13.132;2023-12-20T09:44:14;6.50;99.90
7159;DHT22;63175;52.374;13.132;2023-12-20T09:46:44;6.50;99.90
7159;DHT22;63175;52.374;13.132;2023-12-20T09:49:13;6.50;99.90
7159;DHT22;63175;52.374;13.132;2023-12-20T09:51:41;6.50;99.90
7159;DHT22;63175;52.374;13.132;2023-12-20T09:54:08;6.50;99.90
7159;DHT22;63175;52.374;13.132;2023-12-20T09:56:37;6.50;99.90
7159;DHT22;63175;52.374;13.132;2023-12-20T09:59:04;6.50;99.90
7159;DHT22;63175;52.374;13.132;2023-12-20T10:01:31;6.50;99.90
7159;DHT22;63175;52.374;13.132;2023-12-20T10:04:00;6.60;99.90
7159;DHT22;63175;52.374;13.132;2023-12-20T10:06:29;6.60;99.90
7159;DHT22;63175;52.374;13.132;2023-12-20T10:08:55;6.70;99.90
7159;DHT22;63175;52.374;13.132;2023-12-20T10:11:22;6.80;99.90
7159;DHT22;63175;52.374;13.132;2023-12-20T10:13:49;6.80;99.90
7159;DHT22;63175;52.374;13.132;2023-12-20T10:16:16;6.80;99.90
7159;DHT22;63175;52.374;13.132;2023-12-20T10:18:43;6.80;99.90
7159;DHT22;63175;52.374;13.132;2023-12-20T10:21:12;6.90;99.90
7159;DHT22;63175;52.374;13.132;2023-12-20T10:23:40;6.90;99.90
7159;DHT22;63175;52.374;13.132;2023-12-20T10:26:07;6.90;99.90
7159;DHT22;63175;52.374;13.132;2023-12-20T10:28:35;6.90;99.90
7159;DHT22;63175;52.374;13.132;2023-12-20T10:31:03;6.90;99.90
7159;DHT22;63175;52.374;13.132;2023-12-20T10:33:30;6.90;99.90
7159;DHT22;63175;52.374;13.132;2023-12-20T10:35:58;6.90;99.90
7159;DHT22;63175;52.374;13.132;2023-12-20T10:38:25;6.90;99.90
7159;DHT22;63175;52.374;13.132;2023-12-20T10:40:57;6.90;99.90
7159;DHT22;63175;52.374;13.132;2023-12-20T10:43:24;7.00;99.90
7159;DHT22;63175;52.374;13.132;2023-12-20T10:45:52;7.00;99.90
7159;DHT22;63175;52.374;13.132;2023-12-20T10:48:20;7.00;99.90
7159;DHT22;63175;52.374;13.132;2023-12-20T10:50:52;7.00;99.90
7159;DHT22;63175;52.374;13.132;2023-12-20T10:53:22;7.00;99.90
7159;DHT22;63175;52.374;13.132;2023-12-20T10:55:55;7.00;99.90
7159;DHT22;63175;52.374;13.132;2023-12-20T10:58:22;7.00;99.90
7159;DHT22;63175;52.374;13.132;2023-12-20T11:00:54;7.00;99.90
7159;DHT22;63175;52.374;13.132;2023-12-20T11:03:25;7.00;99.90
7159;DHT22;63175;52.374;13.132;2023-12-20T11:05:59;7.00;99.90
7159;DHT22;63175;52.374;13.132;2023-12-20T11:08:33;7.00;99.90
7159;DHT22;63175;52.374;13.132;2023-12-20T11:11:07;7.00;99.90
7159;DHT22;63175;52.374;13.132;2023-12-20T11:13:37;7.00;99.90
7159;DHT22;63175;52.374;13.132;2023-12-20T11:16:07;7.00;99.90
7159;DHT22;63175;52.374;13.132;2023-12-20T11:18:34;7.00;99.90
7159;DHT22;63175;52.374;13.132;2023-12-20T11:21:02;7.00;99.90
7159;DHT22;63175;52.374;13.132;2023-12-20T11:23:32;7.00;99.90
7159;DHT22;63175;52.374;13.132;2023-12-20T11:26:00;7.00;99.90
7159;DHT22;63175;52.374;13.132;2023-12-20T11:28:29;7.00;99.90
7159;DHT22;63175;52.374;13.132;2023-12-20T11:30:57;7.00;99.90
7159;DHT22;63175;52.374;13.132;2023-12-20T11:33:25;7.00;99.90
7159;DHT22;63175;52.374;13.132;2023-12-20T11:35:55;7.00;99.90
7159;DHT22;63175;52.374;13.132;2023-12-20T11:38:22;7.00;99.90
7159;DHT22;63175;52.374;13.132;2023-12-20T11:40:49;7.00;99.90
7159;DHT22;63175;52.374;13.132;2023-12-20T11:43:31;7.00;99.90
7159;DHT22;63175;52.374;13.132;2023-12-20T11:46:03;7.00;99.90
7159;DHT22;63175;52.374;13.132;2023-12-20T11:48:31;7.10;99.90
7159;DHT22;63175;52.374;13.132;2023-12-20T11:50:58;7.10;99.90
7159;DHT22;63175;52.374;13.132;2023-12-20T11:53:25;7.10;99.90
7159;DHT22;63175;52.374;13.132;2023-12-20T11:55:54;7.10;99.90
7159;DHT22;63175;52.374;13.132;2023-12-20T11:58:21;7.10;99.90
7159;DHT22;63175;52.374;13.132;2023-12-20T12:00:50;7.10;99.90
7159;DHT22;63175;52.374;13.132;2023-12-20T12:03:17;7.10;99.90
7159;DHT22;63175;52.374;13.132;2023-12-20T12:05:47;7.10;99.90
7159;DHT22;63175;52.374;13.132;2023-12-20T12:08:13;7.10;99.90
7159;DHT22;63175;52.374;13.132;2023-12-20T12:10:40;7.10;99.90
7159;DHT22;63175;52.374;13.132;2023-12-20T12:13:08;7.10;99.90
7159;DHT22;63175;52.374;13.132;2023-12-20T12:15:35;7.10;99.90
7159;DHT22;63175;52.374;13.132;2023-12-20T12:18:05;7.10;99.90
7159;DHT22;63175;52.374;13.132;2023-12-20T12:20:32;7.00;99.90
7159;DHT22;63175;52.374;13.132;2023-12-20T12:22:59;7.10;99.90
7159;DHT22;63175;52.374;13.132;2023-12-20T12:25:26;7.10;99.90
7159;DHT22;63175;52.374;13.132;2023-12-20T12:27:56;7.10;99.90
7159;DHT22;63175;52.374;13.132;2023-12-20T12:30:23;7.10;99.90
7159;DHT22;63175;52.374;13.132;2023-12-20T12:32:50;7.10;99.90
7159;DHT22;63175;52.374;13.132;2023-12-20T12:35:19;7.10;99.90
7159;DHT22;63175;52.374;13.132;2023-12-20T12:37:46;7.00;99.90
7159;DHT22;63175;52.374;13.132;2023-12-20T12:40:14;7.10;99.90
7159;DHT22;63175;52.374;13.132;2023-12-20T12:42:41;7.10;99.90
7159;DHT22;63175;52.374;13.132;2023-12-20T12:45:09;7.10;99.90
7159;DHT22;63175;52.374;13.132;2023-12-20T12:47:37;7.00;99.90
7159;DHT22;63175;52.374;13.132;2023-12-20T12:50:04;7.00;99.90
7159;DHT22;63175;52.374;13.132;2023-12-20T12:52:33;7.00;99.90
7159;DHT22;63175;52.374;13.132;2023-12-20T12:55:00;7.00;99.90
7159;DHT22;63175;52.374;13.132;2023-12-20T12:57:28;7.00;99.90
7159;DHT22;63175;52.374;13.132;2023-12-20T12:59:55;7.00;99.90
7159;DHT22;63175;52.374;13.132;2023-12-20T13:02:24;7.00;99.90
7159;DHT22;63175;52.374;13.132;2023-12-20T13:04:50;6.90;99.90
7159;DHT22;63175;52.374;13.132;2023-12-20T13:07:17;6.90;99.90
7159;DHT22;63175;52.374;13.132;2023-12-20T13:09:45;6.90;99.90
7159;DHT22;63175;52.374;13.132;2023-12-20T13:12:12;6.90;99.90
7159;DHT22;63175;52.374;13.132;2023-12-20T13:14:39;6.80;99.90
7159;DHT22;63175;52.374;13.132;2023-12-20T13:17:06;6.90;99.90
7159;DHT22;63175;52.374;13.132;2023-12-20T13:19:33;6.90;99.90
7159;DHT22;63175;52.374;13.132;2023-12-20T13:22:00;6.80;99.90
7159;DHT22;63175;52.374;13.132;2023-12-20T13:24:27;6.80;99.90
7159;DHT22;63175;52.374;13.132;2023-12-20T13:26:56;6.80;99.90
7159;DHT22;63175;52.374;13.132;2023-12-20T13:29:23;6.80;99.90
7159;DHT22;63175;52.374;13.132;2023-12-20T13:31:53;6.80;99.90
7159;DHT22;63175;52.374;13.132;2023-12-20T13:34:20;6.70;99.90
7159;DHT22;63175;52.374;13.132;2023-12-20T13:36:47;6.60;99.90
7159;DHT22;63175;52.374;13.132;2023-12-20T13:39:16;6.50;99.90
7159;DHT22;63175;52.374;13.132;2023-12-20T13:41:43;6.30;99.90
7159;DHT22;63175;52.374;13.132;2023-12-20T13:44:12;6.20;99.90
7159;DHT22;63175;52.374;13.132;2023-12-20T13:46:39;6.10;99.90
7159;DHT22;63175;52.374;13.132;2023-12-20T13:49:06;5.90;99.90
7159;DHT22;63175;52.374;13.132;2023-12-20T13:51:33;5.80;99.90
7159;DHT22;63175;52.374;13.132;2023-12-20T13:54:00;5.70;99.90
7159;DHT22;63175;52.374;13.132;2023-12-20T13:56:27;5.60;99.90
7159;DHT22;63175;52.374;13.132;2023-12-20T13:58:53;5.60;99.90
7159;DHT22;63175;52.374;13.132;2023-12-20T14:01:22;5.50;99.90
7159;DHT22;63175;52.374;13.132;2023-12-20T14:03:49;5.50;99.90
7159;DHT22;63175;52.374;13.132;2023-12-20T14:06:16;5.40;99.90
7159;DHT22;63175;52.374;13.132;2023-12-20T14:08:43;5.40;99.90
7159;DHT22;63175;52.374;13.132;2023-12-20T14:11:10;5.40;99.90
7159;DHT22;63175;52.374;13.132;2023-12-20T14:13:38;5.40;99.90
7159;DHT22;63175;52.374;13.132;2023-12-20T14:16:05;5.30;99.90
7159;DHT22;63175;52.374;13.132;2023-12-20T14:18:33;5.30;99.90
7159;DHT22;63175;52.374;13.132;2023-12-20T14:21:00;5.30;99.90
7159;DHT22;63175;52.374;13.132;2023-12-20T14:23:27;5.30;99.90
7159;DHT22;63175;52.374;13.132;2023-12-20T14:25:53;5.30;99.90
7159;DHT22;63175;52.374;13.132;2023-12-20T14:28:21;5.40;99.90
7159;DHT22;63175;52.374;13.132;2023-12-20T14:30:48;5.40;99.90
7159;DHT22;63175;52.374;13.132;2023-12-20T14:33:15;5.60;99.90
7159;DHT22;63175;52.374;13.132;2023-12-20T14:35:43;5.50;99.90
7159;DHT22;63175;52.374;13.132;2023-12-20T14:38:10;5.50;99.90
7159;DHT22;63175;52.374;13.132;2023-12-20T14:40:39;5.50;99.90
7159;DHT22;63175;52.374;13.132;2023-12-20T14:43:06;5.50;99.90
7159;DHT22;63175;52.374;13.132;2023-12-20T14:45:33;5.50;99.90
7159;DHT22;63175;52.374;13.132;2023-12-20T14:48:00;5.50;99.90
7159;DHT22;63175;52.374;13.132;2023-12-20T14:50:27;5.60;99.90
7159;DHT22;63175;52.374;13.132;2023-12-20T14:52:55;5.60;99.90
7159;DHT22;63175;52.374;13.132;2023-12-20T14:55:22;5.60;99.90
7159;DHT22;63175;52.374;13.132;2023-12-20T14:57:49;5.60;99.90
7159;DHT22;63175;52.374;13.132;2023-12-20T15:00:16;5.60;99.90
7159;DHT22;63175;52.374;13.132;2023-12-20T15:02:43;5.60;99.90
7159;DHT22;63175;52.374;13.132;2023-12-20T15:05:10;5.60;99.90
7159;DHT22;63175;52.374;13.132;2023-12-20T15:07:37;5.60;99.90
7159;DHT22;63175;52.374;13.132;2023-12-20T15:10:06;5.60;99.90
7159;DHT22;63175;52.374;13.132;2023-12-20T15:12:33;5.60;99.90
7159;DHT22;63175;52.374;13.132;2023-12-20T15:15:00;5.60;99.90
7159;DHT22;63175;52.374;13.132;2023-12-20T15:17:27;5.60;99.90
7159;DHT22;63175;52.374;13.132;2023-12-20T15:19:55;5.50;99.90
7159;DHT22;63175;52.374;13.132;2023-12-20T15:22:21;5.50;99.90
7159;DHT22;63175;52.374;13.132;2023-12-20T15:24:49;5.50;99.90
7159;DHT22;63175;52.374;13.132;2023-12-20T15:27:18;5.50;99.90
7159;DHT22;63175;52.374;13.132;2023-12-20T15:29:45;5.50;99.90
7159;DHT22;63175;52.374;13.132;2023-12-20T15:32:12;5.40;99.90
7159;DHT22;63175;52.374;13.132;2023-12-20T15:34:39;5.40;99.90
7159;DHT22;63175;52.374;13.132;2023-12-20T15:37:06;5.40;99.90
7159;DHT22;63175;52.374;13.132;2023-12-20T15:39:32;5.40;99.90
7159;DHT22;63175;52.374;13.132;2023-12-20T15:41:59;5.40;99.90
7159;DHT22;63175;52.374;13.132;2023-12-20T15:44:27;5.30;99.90
7159;DHT22;63175;52.374;13.132;2023-12-20T15:46:54;5.40;99.90